Time;durP1;ratioP1;P1;durP2;ratioP2;P2;SDS_P1;SDS_P2;PMS_P1;PMS_P2;Temp;Humidity;BMP_temperature;BMP_pressure;BME280_temperature;BME280_humidity;BME280_pressure;Samples;Min_cycle;Max_cycle;Signal;HPM_P1;HPM_P2
2023/12/09 00:01:06;;;;;;;32.60;13.25;;;;;;;2.83;100.00;100936.22;5070314;28;20082;-67
2023/12/09 00:03:32;;;;;;;29.80;12.57;;;;;;;2.82;100.00;100925.69;5072618;28;20032;-66
2023/12/09 00:05:58;;;;;;;31.33;13.53;;;;;;;2.83;100.00;100936.22;5072467;28;20040;-65
2023/12/09 00:08:23;;;;;;;31.27;12.93;;;;;;;2.85;100.00;100933.75;5072090;28;20040;-65
2023/12/09 00:10:49;;;;;;;29.83;12.53;;;;;;;2.87;100.00;100926.94;5071522;28;20052;-67
2023/12/09 00:13:14;;;;;;;32.37;12.53;;;;;;;2.88;100.00;100919.22;5072270;28;20606;-64
2023/12/09 00:15:39;;;;;;;30.17;12.05;;;;;;;2.92;100.00;100921.25;5072124;28;20111;-63
2023/12/09 00:18:05;;;;;;;31.00;12.17;;;;;;;2.91;100.00;100929.00;5072472;28;20374;-65
2023/12/09 00:20:30;;;;;;;30.10;11.33;;;;;;;2.91;100.00;100924.66;5071814;28;20068;-65
2023/12/09 00:22:55;;;;;;;28.10;11.47;;;;;;;2.92;100.00;100926.47;5072062;28;20037;-65
2023/12/09 00:25:21;;;;;;;31.97;12.10;;;;;;;2.94;100.00;100927.50;5072093;28;20420;-66
2023/12/09 00:27:46;;;;;;;30.20;11.63;;;;;;;2.93;100.00;100930.91;5072155;28;20400;-64
2023/12/09 00:30:12;;;;;;;27.50;11.70;;;;;;;2.93;100.00;100930.91;5071848;28;20047;-66
2023/12/09 00:32:37;;;;;;;33.37;12.50;;;;;;;2.96;100.00;100927.63;5072146;28;20109;-66
2023/12/09 00:35:03;;;;;;;28.17;11.13;;;;;;;2.98;100.00;100926.94;5072091;28;20045;-64
2023/12/09 00:37:28;;;;;;;34.30;13.10;;;;;;;2.99;100.00;100926.16;5071672;28;20041;-65
2023/12/09 00:39:53;;;;;;;28.57;11.53;;;;;;;3.00;100.00;100927.97;5071263;28;20371;-64
2023/12/09 00:42:19;;;;;;;30.47;12.40;;;;;;;3.01;100.00;100936.66;5071677;28;20036;-67
2023/12/09 00:44:44;;;;;;;32.07;13.23;;;;;;;3.03;100.00;100943.84;5071389;28;20115;-65
2023/12/09 00:47:09;;;;;;;32.03;12.70;;;;;;;3.06;100.00;100942.25;5071617;28;20036;-65
2023/12/09 00:49:35;;;;;;;30.30;12.93;;;;;;;3.07;100.00;100942.34;5070865;28;20403;-66
2023/12/09 00:52:00;;;;;;;30.23;12.33;;;;;;;3.07;100.00;100936.22;5071340;28;20119;-65
2023/12/09 00:54:26;;;;;;;30.63;12.50;;;;;;;3.09;100.00;100939.88;5071173;28;20119;-66
2023/12/09 00:56:51;;;;;;;34.67;12.57;;;;;;;3.09;100.00;100939.88;5071255;28;20158;-67
2023/12/09 00:59:16;;;;;;;29.23;12.33;;;;;;;3.11;100.00;100946.13;5070401;28;20040;-65
2023/12/09 01:01:42;;;;;;;28.47;12.17;;;;;;;3.13;100.00;100942.81;5071581;28;20867;-65
2023/12/09 01:04:07;;;;;;;30.90;11.83;;;;;;;3.15;100.00;100942.94;5071276;28;20197;-65
2023/12/09 01:06:33;;;;;;;34.83;13.80;;;;;;;3.20;100.00;100952.00;5071411;28;20029;-65
2023/12/09 01:08:58;;;;;;;32.35;13.18;;;;;;;3.20;100.00;100952.91;5070554;28;20044;-62
2023/12/09 01:11:24;;;;;;;24.90;10.17;;;;;;;3.21;100.00;100954.69;5071458;28;20512;-65
2023/12/09 01:13:49;;;;;;;32.25;12.00;;;;;;;3.21;100.00;100951.19;5071248;28;20051;-67
2023/12/09 01:16:15;;;;;;;31.90;11.77;;;;;;;3.22;100.00;100960.81;5071935;28;20036;-65
2023/12/09 01:18:40;;;;;;;27.17;11.57;;;;;;;3.21;100.00;100959.00;5072392;28;20037;-65
2023/12/09 01:21:06;;;;;;;33.33;14.20;;;;;;;3.19;100.00;100948.47;5070463;28;20119;-66
2023/12/09 01:23:31;;;;;;;31.40;13.27;;;;;;;3.21;100.00;100952.09;5068045;28;20071;-65
2023/12/09 01:25:56;;;;;;;29.15;12.27;;;;;;;3.21;100.00;100952.09;5070570;28;20033;-66
2023/12/09 01:28:22;;;;;;;29.53;12.60;;;;;;;3.23;100.00;100954.81;5070243;28;20108;-65
2023/12/09 01:30:47;;;;;;;35.23;11.40;;;;;;;3.22;100.00;100961.75;5070648;28;20037;-65
2023/12/09 01:33:13;;;;;;;31.30;11.77;;;;;;;3.23;100.00;100954.81;5070749;28;20044;-65
2023/12/09 01:35:38;;;;;;;29.88;11.60;;;;;;;3.24;100.00;100954.03;5070493;28;20711;-65
2023/12/09 01:38:03;;;;;;;30.83;12.03;;;;;;;3.23;100.00;100960.03;5070360;28;20044;-66
2023/12/09 01:40:29;;;;;;;32.63;13.00;;;;;;;3.21;100.00;100956.41;5069919;28;20530;-66
2023/12/09 01:42:54;;;;;;;30.23;12.47;;;;;;;3.20;100.00;100955.53;5070548;28;20059;-66
2023/12/09 01:45:20;;;;;;;32.23;13.43;;;;;;;3.21;100.00;100951.19;5070101;28;20052;-66
2023/12/09 01:47:47;;;;;;;29.63;12.15;;;;;;;3.23;100.00;100952.22;5070462;28;20037;-65
2023/12/09 01:50:14;;;;;;;28.15;12.63;;;;;;;3.25;100.00;100955.84;5069859;28;20508;-65
2023/12/09 01:52:40;;;;;;;29.13;11.65;;;;;;;3.26;100.00;100955.03;5070198;28;20033;-64
2023/12/09 01:55:06;;;;;;;31.67;13.03;;;;;;;3.28;100.00;100953.47;5070305;28;20040;-65
2023/12/09 01:57:33;;;;;;;30.55;11.85;;;;;;;3.29;100.00;100950.06;5070349;28;20039;-65
2023/12/09 01:59:58;;;;;;;28.33;10.77;;;;;;;3.30;100.00;100951.88;5069479;28;20032;-65
2023/12/09 02:02:24;;;;;;;29.10;11.60;;;;;;;3.27;100.00;100946.41;5070154;28;20081;-66
2023/12/09 02:04:51;;;;;;;29.00;11.57;;;;;;;3.27;100.00;100946.41;5070081;28;20041;-64
2023/12/09 02:07:17;;;;;;;30.63;13.80;;;;;;;3.28;100.00;100948.22;5070025;28;20037;-63
2023/12/09 02:09:42;;;;;;;28.58;12.38;;;;;;;3.27;100.00;100951.63;5069483;28;20028;-64
2023/12/09 02:12:22;;;;;;;31.77;12.33;;;;;;;3.26;100.00;100942.88;5070128;28;20381;-63
2023/12/09 02:14:58;;;;;;;31.33;13.00;;;;;;;3.29;100.00;100942.22;5070184;28;20071;-62
2023/12/09 02:17:33;;;;;;;28.35;11.27;;;;;;;3.28;100.00;100941.31;5070173;28;20407;-65
2023/12/09 02:20:00;;;;;;;33.83;12.13;;;;;;;3.28;100.00;100937.78;5069364;28;20079;-64
2023/12/09 02:22:26;;;;;;;29.00;12.33;;;;;;;3.27;100.00;100939.50;5069872;28;20032;-64
2023/12/09 02:24:51;;;;;;;32.35;12.57;;;;;;;3.27;100.00;100944.72;5069789;28;20071;-63
2023/12/09 02:27:40;;;;;;;30.73;11.97;;;;;;;3.24;100.00;100941.91;5069739;28;20127;-64
2023/12/09 02:30:20;;;;;;;32.80;13.23;;;;;;;3.24;100.00;100939.28;5069230;28;20039;-63
2023/12/09 02:32:47;;;;;;;30.88;13.00;;;;;;;3.22;100.00;100942.56;5070955;28;20378;-63
2023/12/09 02:35:15;;;;;;;29.70;12.90;;;;;;;3.22;100.00;100948.69;5073953;28;20029;-64
2023/12/09 02:37:42;;;;;;;28.75;11.73;;;;;;;3.23;100.00;100952.22;5073784;28;20043;-64
2023/12/09 02:40:11;;;;;;;29.83;13.23;;;;;;;3.23;100.00;100949.59;5073398;28;20473;-63
2023/12/09 02:42:39;;;;;;;31.70;12.63;;;;;;;3.25;100.00;100948.03;5074281;28;20036;-63
2023/12/09 02:45:06;;;;;;;28.67;11.70;;;;;;;3.26;100.00;100936.75;5074296;28;20047;-63
2023/12/09 02:47:31;;;;;;;29.03;13.03;;;;;;;3.29;100.00;100944.84;5074709;28;20112;-64
2023/12/09 02:49:56;;;;;;;30.63;12.47;;;;;;;3.30;100.00;100936.22;5074114;28;20071;-64
2023/12/09 02:52:22;;;;;;;26.83;11.30;;;;;;;3.30;100.00;100933.59;5073893;28;20343;-63
2023/12/09 02:54:47;;;;;;;29.23;12.17;;;;;;;3.30;100.00;100941.44;5073779;28;20042;-64
2023/12/09 02:57:13;;;;;;;34.13;12.67;;;;;;;3.31;100.00;100930.16;5073715;28;20043;-64
2023/12/09 02:59:40;;;;;;;28.93;12.47;;;;;;;3.34;100.00;100933.03;5072750;28;20040;-63
2023/12/09 03:02:06;;;;;;;29.40;12.35;;;;;;;3.34;100.00;100923.50;5073422;28;20132;-65
2023/12/09 03:04:32;;;;;;;30.50;11.80;;;;;;;3.36;100.00;100926.19;5073350;28;20123;-64
2023/12/09 03:06:57;;;;;;;31.83;12.83;;;;;;;3.34;100.00;100925.19;5073150;28;20032;-65
2023/12/09 03:09:22;;;;;;;32.13;13.15;;;;;;;3.34;100.00;100930.41;5072869;28;20033;-64
2023/12/09 03:11:48;;;;;;;32.37;11.90;;;;;;;3.35;100.00;100935.75;5073212;28;20107;-64
2023/12/09 03:14:13;;;;;;;34.20;13.47;;;;;;;3.35;100.00;100934.84;5073098;28;20567;-64
2023/12/09 03:16:39;;;;;;;31.50;13.90;;;;;;;3.35;100.00;100937.47;5073287;28;20029;-64
2023/12/09 03:19:04;;;;;;;33.23;13.37;;;;;;;3.36;100.00;100926.19;5072950;28;20409;-64
2023/12/09 03:21:30;;;;;;;32.55;13.10;;;;;;;3.37;100.00;100934.13;5073067;28;20051;-64
2023/12/09 03:23:55;;;;;;;33.17;12.67;;;;;;;3.40;100.00;100941.31;5073189;28;20044;-64
2023/12/09 03:26:21;;;;;;;31.33;13.57;;;;;;;3.41;100.00;100933.56;5073037;28;20031;-62
2023/12/09 03:28:46;;;;;;;33.13;13.30;;;;;;;3.40;100.00;100933.47;5046056;28;20370;-63
2023/12/09 03:31:13;;;;;;;34.23;13.47;;;;;;;3.41;100.00;100932.66;5053305;28;20124;-63
2023/12/09 03:33:39;;;;;;;35.33;14.57;;;;;;;3.42;100.00;100937.09;5053201;28;20059;-63
2023/12/09 03:36:05;;;;;;;34.87;13.67;;;;;;;3.40;100.00;100934.34;5052699;28;20058;-64
2023/12/09 03:38:31;;;;;;;34.00;12.40;;;;;;;3.42;100.00;100929.25;5052615;28;20029;-64
2023/12/09 03:40:56;;;;;;;28.50;12.87;;;;;;;3.45;100.00;100926.88;5051780;28;20043;-64
2023/12/09 03:43:22;;;;;;;35.73;12.80;;;;;;;3.47;100.00;100927.88;5053047;28;20044;-64
2023/12/09 03:45:47;;;;;;;36.60;12.97;;;;;;;3.50;100.00;100933.34;5051575;28;20444;-63
2023/12/09 03:48:12;;;;;;;39.10;14.63;;;;;;;3.53;100.00;100935.25;5052762;28;20506;-64
2023/12/09 03:50:38;;;;;;;38.30;12.93;;;;;;;3.55;100.00;100926.75;5052140;28;20135;-64
2023/12/09 03:53:03;;;;;;;41.60;16.37;;;;;;;3.55;100.00;100928.44;5052548;28;20468;-63
2023/12/09 03:55:29;;;;;;;41.35;15.15;;;;;;;3.55;100.00;100931.97;5052506;28;20037;-64
2023/12/09 03:57:55;;;;;;;39.37;15.50;;;;;;;3.53;100.00;100938.75;5041748;28;20041;-64
2023/12/09 04:00:20;;;;;;;38.47;14.02;;;;;;;3.52;100.00;100944.78;5035229;28;20116;-65
2023/12/09 04:02:45;;;;;;;31.73;12.03;;;;;;;3.54;100.00;100947.50;5031306;28;20078;-64
2023/12/09 04:05:11;;;;;;;39.50;15.40;;;;;;;3.54;100.00;100937.97;5031812;28;20158;-65
2023/12/09 04:07:36;;;;;;;36.47;13.13;;;;;;;3.55;100.00;100944.09;5031757;28;20485;-64
2023/12/09 04:10:03;;;;;;;38.60;14.23;;;;;;;3.55;100.00;100946.72;5031010;28;20120;-63
2023/12/09 04:12:28;;;;;;;36.17;14.15;;;;;;;3.52;100.00;100944.78;5031429;28;20045;-63
2023/12/09 04:14:54;;;;;;;37.00;14.13;;;;;;;3.53;100.00;100944.00;5032147;28;20040;-63
2023/12/09 04:17:21;;;;;;;38.63;12.73;;;;;;;3.53;100.00;100944.00;5032133;28;20997;-64
2023/12/09 04:19:47;;;;;;;39.33;15.10;;;;;;;3.54;100.00;100952.72;5031635;28;20489;-64
2023/12/09 04:22:12;;;;;;;34.43;13.77;;;;;;;3.53;100.00;100959.66;5032120;28;20037;-65
2023/12/09 04:24:38;;;;;;;39.60;14.67;;;;;;;3.52;100.00;100950.00;5031795;28;20045;-64
2023/12/09 04:27:04;;;;;;;45.33;15.77;;;;;;;3.53;100.00;100948.31;5031965;28;20073;-64
2023/12/09 04:29:29;;;;;;;46.73;15.60;;;;;;;3.51;100.00;100940.34;5044334;28;20037;-64
2023/12/09 04:31:54;;;;;;;46.20;16.67;;;;;;;3.50;100.00;100946.41;5051941;28;20037;-65
2023/12/09 04:34:20;;;;;;;45.63;15.97;;;;;;;3.51;100.00;100939.44;5051517;28;20485;-63
2023/12/09 04:36:45;;;;;;;37.23;15.20;;;;;;;3.51;100.00;100940.34;5051686;28;20263;-64
2023/12/09 04:39:10;;;;;;;39.40;14.57;;;;;;;3.51;100.00;100947.28;5051099;28;20119;-65
2023/12/09 04:41:37;;;;;;;49.93;16.77;;;;;;;3.51;100.00;100947.28;5051448;28;20029;-64
2023/12/09 04:44:03;;;;;;;45.60;16.33;;;;;;;3.52;100.00;100950.00;5051636;28;20029;-64
2023/12/09 04:46:28;;;;;;;42.93;15.30;;;;;;;3.52;100.00;100944.78;5051576;28;20045;-64
2023/12/09 04:48:53;;;;;;;43.60;14.17;;;;;;;3.54;100.00;100950.13;5050868;28;20127;-64
2023/12/09 04:51:19;;;;;;;43.95;14.70;;;;;;;3.53;100.00;100951.81;5046510;28;20108;-65
2023/12/09 04:53:44;;;;;;;40.23;14.93;;;;;;;3.55;100.00;100949.34;5031517;28;20413;-68
2023/12/09 04:56:10;;;;;;;41.13;14.93;;;;;;;3.57;100.00;100935.56;5051385;28;20025;-65
2023/12/09 04:58:35;;;;;;;44.07;15.37;;;;;;;3.54;100.00;100935.38;5051938;28;20041;-64
2023/12/09 05:01:01;;;;;;;43.07;15.37;;;;;;;3.53;100.00;100935.25;5071144;28;20738;-65
2023/12/09 05:03:27;;;;;;;51.27;16.43;;;;;;;3.55;100.00;100934.56;5064556;28;20029;-64
2023/12/09 05:05:52;;;;;;;47.87;17.23;;;;;;;3.56;100.00;100923.31;5050943;28;20295;-64
2023/12/09 05:08:18;;;;;;;43.43;14.57;;;;;;;3.55;100.00;100929.34;5049318;28;20044;-63
2023/12/09 05:10:43;;;;;;;44.90;14.53;;;;;;;3.56;100.00;100930.22;5050484;28;20447;-65
2023/12/09 05:13:09;;;;;;;45.33;14.75;;;;;;;3.53;100.00;100930.94;5050671;28;20488;-65
2023/12/09 05:15:34;;;;;;;49.40;15.27;;;;;;;3.57;100.00;100926.81;5050992;28;20530;-64
2023/12/09 05:18:00;;;;;;;41.17;15.10;;;;;;;3.59;100.00;100928.75;5050889;28;20029;-65
2023/12/09 05:20:25;;;;;;;44.92;16.15;;;;;;;3.63;100.00;100920.34;5050219;28;20032;-63
2023/12/09 05:22:51;;;;;;;50.17;15.13;;;;;;;3.67;100.00;100913.63;5048813;28;20116;-64
2023/12/09 05:25:16;;;;;;;47.93;16.27;;;;;;;3.68;100.00;100911.13;5035707;28;20038;-63
2023/12/09 05:27:42;;;;;;;43.80;14.68;;;;;;;3.68;100.00;100912.84;5030792;28;20029;-63
2023/12/09 05:30:07;;;;;;;38.33;13.63;;;;;;;3.67;100.00;100909.31;5063278;28;20120;-64
2023/12/09 05:32:33;;;;;;;46.00;15.17;;;;;;;3.64;100.00;100909.09;5070894;28;20448;-65
2023/12/09 05:34:58;;;;;;;38.97;15.23;;;;;;;3.64;100.00;100908.19;5070544;28;20032;-64
2023/12/09 05:37:26;;;;;;;39.77;15.07;;;;;;;3.63;100.00;100904.66;5070494;28;20559;-65
2023/12/09 05:39:51;;;;;;;43.90;14.73;;;;;;;3.65;100.00;100904.78;5069831;28;20037;-63
2023/12/09 05:42:17;;;;;;;37.23;14.60;;;;;;;3.65;100.00;100894.34;5070246;28;20373;-63
2023/12/09 05:44:42;;;;;;;38.33;13.73;;;;;;;3.66;100.00;100894.44;5070484;28;20111;-64
2023/12/09 05:47:07;;;;;;;33.83;13.83;;;;;;;3.69;100.00;100891.13;5070627;28;20036;-64
2023/12/09 05:49:33;;;;;;;41.67;15.43;;;;;;;3.71;100.00;100884.31;5067357;28;20123;-64
2023/12/09 05:51:58;;;;;;;37.70;14.03;;;;;;;3.71;100.00;100889.53;5050288;28;20135;-63
2023/12/09 05:54:24;;;;;;;39.97;13.67;;;;;;;3.69;100.00;100885.91;5049875;28;20043;-64
2023/12/09 05:56:49;;;;;;;36.23;13.20;;;;;;;3.71;100.00;100897.34;5050155;28;20171;-64
2023/12/09 05:59:15;;;;;;;28.85;11.30;;;;;;;3.68;100.00;100892.84;5049517;28;20041;-63
2023/12/09 06:01:40;;;;;;;34.93;13.53;;;;;;;3.66;100.00;100897.03;5049907;28;20036;-63
2023/12/09 06:04:05;;;;;;;39.80;14.30;;;;;;;3.68;100.00;100898.06;5063688;28;20123;-65
2023/12/09 06:06:31;;;;;;;35.57;13.37;;;;;;;3.70;100.00;100893.84;5069952;28;20537;-63
2023/12/09 06:08:56;;;;;;;34.08;13.38;;;;;;;3.71;100.00;100889.53;5065616;28;20047;-64
2023/12/09 06:11:22;;;;;;;35.60;13.23;;;;;;;3.70;100.00;100883.38;5032792;28;20528;-64
2023/12/09 06:13:47;;;;;;;31.87;13.03;;;;;;;3.72;100.00;100875.66;5029938;28;20120;-64
2023/12/09 06:16:19;;;;;;;33.93;13.57;;;;;;;3.74;100.00;100879.31;5030105;28;20374;-64
2023/12/09 06:18:46;;;;;;;40.08;13.50;;;;;;;3.76;100.00;100883.81;5029497;28;20041;-64
2023/12/09 06:21:21;;;;;;;33.38;13.90;;;;;;;3.76;100.00;100888.13;5029815;28;20481;-62
2023/12/09 06:23:47;;;;;;;36.28;13.40;;;;;;;3.79;100.00;100884.06;5029787;28;20480;-63
2023/12/09 06:26:12;;;;;;;35.73;12.50;;;;;;;3.82;100.00;100880.75;5029169;28;20095;-64
2023/12/09 06:28:37;;;;;;;32.97;13.37;;;;;;;3.84;100.00;100876.53;5034260;28;20124;-63
2023/12/09 06:31:03;;;;;;;40.03;14.77;;;;;;;3.86;100.00;100880.16;5049912;28;20037;-63
2023/12/09 06:33:28;;;;;;;34.15;13.65;;;;;;;3.85;100.00;100892.31;5049173;28;20041;-63
2023/12/09 06:35:54;;;;;;;33.57;12.00;;;;;;;3.83;100.00;100893.91;5043743;28;20079;-64
2023/12/09 06:38:19;;;;;;;29.53;12.23;;;;;;;3.84;100.00;100905.28;5033328;28;20040;-64
2023/12/09 06:40:45;;;;;;;36.87;14.27;;;;;;;3.84;100.00;100893.13;5029664;28;20029;-64
2023/12/09 06:43:10;;;;;;;33.20;12.30;;;;;;;3.87;100.00;100903.78;5030107;28;20569;-66
2023/12/09 06:45:35;;;;;;;31.70;12.50;;;;;;;3.88;100.00;100916.03;5029394;28;20036;-65
2023/12/09 06:48:01;;;;;;;27.53;11.67;;;;;;;3.86;100.00;100909.78;5029374;28;20129;-64
2023/12/09 06:50:26;;;;;;;35.60;12.27;;;;;;;3.87;100.00;100913.31;5029232;28;20552;-66
2023/12/09 06:52:52;;;;;;;32.80;12.20;;;;;;;3.85;100.00;100921.03;5037039;28;20107;-65
2023/12/09 06:55:17;;;;;;;33.63;13.50;;;;;;;3.85;100.00;100909.69;5058825;28;20381;-64
2023/12/09 06:57:42;;;;;;;32.93;12.13;;;;;;;3.85;100.00;100917.50;5059944;28;20029;-62
2023/12/09 07:00:08;;;;;;;37.57;14.50;;;;;;;3.86;100.00;100917.63;5069026;28;20032;-63
2023/12/09 07:02:34;;;;;;;31.92;12.43;;;;;;;3.86;100.00;100916.72;5059217;28;20571;-62
2023/12/09 07:04:59;;;;;;;29.57;12.50;;;;;;;3.88;100.00;100916.03;5051465;28;20044;-62
2023/12/09 07:07:25;;;;;;;30.13;12.10;;;;;;;3.89;100.00;100916.97;5054597;28;20033;-65
2023/12/09 07:09:50;;;;;;;29.85;13.15;;;;;;;3.91;100.00;100912.72;5035058;28;20049;-62
2023/12/09 07:12:15;;;;;;;29.70;12.63;;;;;;;3.90;100.00;100919.66;5038002;28;20033;-64
2023/12/09 07:14:41;;;;;;;26.43;12.00;;;;;;;3.94;100.00;100912.06;5029638;28;20468;-63
2023/12/09 07:17:06;;;;;;;33.40;12.80;;;;;;;3.93;100.00;100908.53;5029301;28;20108;-63
2023/12/09 07:19:32;;;;;;;36.00;13.90;;;;;;;3.91;100.00;100903.19;5061354;28;20461;-64
2023/12/09 07:21:57;;;;;;;26.75;11.07;;;;;;;3.90;100.00;100892.63;5072666;28;20043;-64
2023/12/09 07:24:22;;;;;;;29.03;12.17;;;;;;;3.86;100.00;100901.94;5061249;28;20026;-64
2023/12/09 07:26:48;;;;;;;29.17;11.47;;;;;;;3.84;100.00;100898.34;5032883;28;20033;-63
2023/12/09 07:29:13;;;;;;;28.70;10.97;;;;;;;3.86;100.00;100904.56;5053494;28;20438;-64
2023/12/09 07:31:39;;;;;;;34.70;12.85;;;;;;;3.89;100.00;100907.41;5073164;28;20152;-64
2023/12/09 07:34:04;;;;;;;29.10;12.23;;;;;;;3.90;100.00;100892.63;5073736;28;20082;-65
2023/12/09 07:36:29;;;;;;;27.67;11.03;;;;;;;3.94;100.00;100907.72;5058813;28;20040;-64
2023/12/09 07:38:59;;;;;;;33.53;11.45;;;;;;;3.96;100.00;100906.09;5052339;28;20090;-65
2023/12/09 07:41:24;;;;;;;29.48;10.55;;;;;;;3.98;100.00;100909.75;5048145;28;20033;-64
2023/12/09 07:43:49;;;;;;;35.30;12.37;;;;;;;4.01;100.00;100911.66;5033177;28;20084;-64
2023/12/09 07:46:15;;;;;;;32.40;11.90;;;;;;;4.02;100.00;100893.47;5033523;28;20794;-63
2023/12/09 07:48:41;;;;;;;29.55;12.05;;;;;;;4.02;100.00;100898.72;5034367;28;20033;-64
2023/12/09 07:51:07;;;;;;;27.47;10.97;;;;;;;4.04;100.00;100896.22;5037003;28;20032;-65
2023/12/09 07:53:33;;;;;;;26.30;11.30;;;;;;;4.09;100.00;100902.66;5043115;28;20116;-64
2023/12/09 07:55:59;;;;;;;29.50;11.60;;;;;;;4.16;100.00;100912.72;5054827;28;20536;-64
2023/12/09 07:58:24;;;;;;;28.77;10.63;;;;;;;4.22;100.00;100913.13;5049853;28;20480;-64
2023/12/09 08:00:50;;;;;;;27.67;11.45;;;;;;;4.25;100.00;100911.63;5043362;28;20033;-64
2023/12/09 08:03:16;;;;;;;26.67;11.33;;;;;;;4.32;100.00;100923.44;5039368;28;20048;-65
2023/12/09 08:05:45;;;;;;;30.77;12.40;;;;;;;4.38;100.00;100916.00;5033162;28;20033;-64
2023/12/09 08:08:11;;;;;;;26.02;11.80;;;;;;;4.40;100.00;100901.31;5032739;28;20029;-64
2023/12/09 08:10:37;;;;;;;26.33;10.75;;;;;;;4.41;100.00;100903.13;5059283;28;20098;-65
2023/12/09 08:13:04;;;;;;;21.10;8.93;;;;;;;4.45;100.00;100906.84;5072522;28;20063;-65
2023/12/09 08:15:29;;;;;;;26.58;11.32;;;;;;;4.45;100.00;100905.13;5062293;28;20064;-65
2023/12/09 08:17:54;;;;;;;24.30;10.00;;;;;;;4.48;100.00;100907.97;5033296;28;20486;-64
2023/12/09 08:20:20;;;;;;;24.17;10.00;;;;;;;4.51;100.00;100913.41;5031990;28;20537;-65
2023/12/09 08:22:45;;;;;;;28.85;11.43;;;;;;;4.54;100.00;100908.38;5032353;28;20029;-64
2023/12/09 08:25:11;;;;;;;26.20;10.57;;;;;;;4.54;100.00;100912.72;5032981;28;20037;-65
2023/12/09 08:27:38;;;;;;;25.67;10.63;;;;;;;4.53;100.00;100917.03;5032260;28;20029;-64
2023/12/09 08:30:05;;;;;;;22.98;9.88;;;;;;;4.55;100.00;100909.28;5049331;28;20036;-62
2023/12/09 08:32:30;;;;;;;25.27;10.77;;;;;;;4.58;100.00;100899.03;5050685;28;20413;-63
2023/12/09 08:34:56;;;;;;;25.73;11.20;;;;;;;4.60;100.00;100898.31;5051491;28;20100;-63
2023/12/09 08:37:25;;;;;;;24.87;11.17;;;;;;;4.65;100.00;100903.88;5051659;28;20041;-64
2023/12/09 08:39:54;;;;;;;25.48;10.55;;;;;;;4.67;100.00;100899.66;5051175;28;20489;-63
2023/12/09 08:42:20;;;;;;;23.70;10.70;;;;;;;4.71;100.00;100891.19;5051075;28;20041;-63
2023/12/09 08:44:45;;;;;;;20.93;10.03;;;;;;;4.74;100.00;100894.91;5051812;28;20485;-64
2023/12/09 08:47:10;;;;;;;28.20;10.03;;;;;;;4.80;100.00;100894.41;5049541;28;20123;-67
2023/12/09 08:49:54;;;;;;;22.37;9.27;;;;;;;4.85;100.00;100892.09;5030713;28;20279;-70
2023/12/09 08:52:23;;;;;;;27.98;9.45;;;;;;;4.92;100.00;100887.38;5048241;28;20436;-67
2023/12/09 08:54:49;;;;;;;27.50;10.63;;;;;;;4.98;100.00;100886.88;5051655;28;20035;-67
2023/12/09 08:57:14;;;;;;;28.33;9.57;;;;;;;4.97;100.00;100885.97;5051080;28;20112;-68
2023/12/09 08:59:40;;;;;;;24.03;10.37;;;;;;;5.01;100.00;100889.69;5050354;28;20325;-66
2023/12/09 09:02:06;;;;;;;23.42;9.32;;;;;;;5.05;100.00;100883.84;5051510;28;20052;-67
2023/12/09 09:04:32;;;;;;;20.60;8.67;;;;;;;5.27;100.00;100881.81;5051261;28;20033;-63
2023/12/09 09:06:57;;;;;;;23.20;9.55;;;;;;;5.53;100.00;100883.44;5051160;28;20040;-67
2023/12/09 09:09:22;;;;;;;25.23;10.70;;;;;;;5.48;100.00;100875.28;5054553;28;20047;-68
2023/12/09 09:11:48;;;;;;;22.83;9.77;;;;;;;5.39;100.00;100872.09;5063131;28;20119;-67
2023/12/09 09:14:13;;;;;;;29.43;10.57;;;;;;;5.32;100.00;100867.28;5050910;28;20079;-67
2023/12/09 09:16:38;;;;;;;23.13;10.30;;;;;;;5.31;100.00;100862.84;5050550;28;20108;-69
2023/12/09 09:19:05;;;;;;;26.17;9.97;;;;;;;5.29;100.00;100861.84;5050206;28;20128;-67
2023/12/09 09:21:30;;;;;;;22.63;8.57;;;;;;;5.32;100.00;100864.66;5050961;28;20302;-70
2023/12/09 09:23:56;;;;;;;23.33;10.63;;;;;;;5.30;100.00;100860.13;5050753;28;20510;-69
2023/12/09 09:26:21;;;;;;;25.93;10.97;;;;;;;5.27;100.00;100866.09;5052104;28;20440;-68
2023/12/09 09:28:47;;;;;;;22.63;9.70;;;;;;;5.25;100.00;100867.69;5060993;28;20518;-68
2023/12/09 09:31:13;;;;;;;22.83;9.10;;;;;;;5.28;100.00;100865.25;5052732;28;20033;-69
2023/12/09 09:33:41;;;;;;;22.17;9.63;;;;;;;5.28;100.00;100878.34;5070305;28;20040;-69
2023/12/09 09:36:07;;;;;;;20.53;8.07;;;;;;;5.24;100.00;100873.72;5063318;28;20044;-67
2023/12/09 09:38:33;;;;;;;21.80;8.90;;;;;;;5.25;100.00;100861.53;5050095;28;20134;-68
2023/12/09 09:41:00;;;;;;;22.38;9.15;;;;;;;5.23;100.00;100864.06;5050357;28;20408;-68
2023/12/09 09:43:34;;;;;;;24.48;9.05;;;;;;;5.24;100.00;100876.34;5049783;28;20424;-68
2023/12/09 09:46:02;;;;;;;22.92;9.20;;;;;;;5.28;100.00;100865.25;5068164;28;20445;-67
2023/12/09 09:48:32;;;;;;;25.23;10.13;;;;;;;5.30;100.00;100866.28;5069431;28;20033;-68
2023/12/09 09:51:02;;;;;;;22.80;8.77;;;;;;;5.32;100.00;100861.16;5070691;28;20392;-67
2023/12/09 09:53:50;;;;;;;21.98;9.75;;;;;;;5.32;100.00;100864.66;5070736;28;20041;-69
2023/12/09 09:56:16;;;;;;;21.85;8.60;;;;;;;5.34;100.00;100859.50;5070537;28;20031;-69
2023/12/09 09:58:42;;;;;;;24.00;10.25;;;;;;;5.35;100.00;100850.84;5069917;28;20036;-70
2023/12/09 10:01:09;;;;;;;24.97;9.50;;;;;;;5.37;100.00;100846.63;5068849;28;20040;-67
2023/12/09 10:03:35;;;;;;;23.17;8.98;;;;;;;5.39;100.00;100848.53;5050520;28;20132;-67
2023/12/09 10:06:00;;;;;;;21.08;9.23;;;;;;;5.42;100.00;100847.81;5050397;28;20163;-66
2023/12/09 10:08:25;;;;;;;17.67;8.03;;;;;;;5.43;100.00;100847.91;5049979;28;20028;-70
2023/12/09 10:10:51;;;;;;;21.00;7.90;;;;;;;5.43;100.00;100829.56;5050345;28;20732;-68
2023/12/09 10:13:17;;;;;;;21.25;8.75;;;;;;;5.46;100.00;100821.91;5050163;28;20049;-65
2023/12/09 10:15:42;;;;;;;20.43;7.93;;;;;;;5.48;100.00;100824.59;5050688;28;20040;-69
2023/12/09 10:18:13;;;;;;;21.10;8.20;;;;;;;5.51;100.00;100825.72;5050367;28;20108;-67
2023/12/09 10:20:38;;;;;;;18.42;7.47;;;;;;;5.51;100.00;100819.56;5048587;28;20061;-65
2023/12/09 10:23:04;;;;;;;19.70;8.03;;;;;;;5.50;100.00;100816.06;5050441;28;20099;-66
2023/12/09 10:25:29;;;;;;;21.43;8.70;;;;;;;5.49;100.00;100809.00;5050255;28;20086;-71
2023/12/09 10:27:56;;;;;;;20.35;7.75;;;;;;;5.50;100.00;100813.44;5050216;28;20508;-67
2023/12/09 10:30:21;;;;;;;17.67;7.60;;;;;;;5.50;100.00;100813.44;5049737;28;20033;-68
2023/12/09 10:32:47;;;;;;;21.27;9.20;;;;;;;5.55;100.00;100805.84;5050251;28;20044;-67
2023/12/09 10:35:13;;;;;;;21.93;8.47;;;;;;;5.58;100.00;100809.56;5051611;28;20527;-66
2023/12/09 10:37:39;;;;;;;19.38;9.32;;;;;;;5.59;100.00;100808.75;5069903;28;20036;-66
2023/12/09 10:40:06;;;;;;;22.52;8.50;;;;;;;5.64;100.00;100796.84;5070406;28;20055;-66
2023/12/09 10:42:32;;;;;;;21.13;8.87;;;;;;;5.68;100.00;100791.78;5069073;28;20048;-69
2023/12/09 10:44:57;;;;;;;19.40;7.65;;;;;;;5.72;100.00;100785.94;5070925;28;20493;-66
2023/12/09 10:47:24;;;;;;;17.80;6.80;;;;;;;5.72;100.00;100776.34;5071217;28;20084;-66
2023/12/09 10:49:51;;;;;;;19.10;8.95;;;;;;;5.75;100.00;100771.28;5070428;28;20124;-68
2023/12/09 10:52:16;;;;;;;18.83;7.23;;;;;;;5.79;100.00;100764.50;5069823;28;20041;-66
2023/12/09 10:54:41;;;;;;;17.52;7.22;;;;;;;5.83;100.00;100766.50;5072334;28;20055;-70
2023/12/09 10:57:07;;;;;;;17.93;6.77;;;;;;;5.88;100.00;100759.84;5073851;28;20115;-66
2023/12/09 10:59:34;;;;;;;19.23;8.50;;;;;;;5.91;100.00;100752.19;5061476;28;20551;-66
2023/12/09 11:02:01;;;;;;;16.75;7.13;;;;;;;5.98;100.00;100757.88;5053588;28;20072;-67
2023/12/09 11:04:26;;;;;;;21.02;8.27;;;;;;;6.01;100.00;100749.28;5052617;28;20127;-68
2023/12/09 11:06:55;;;;;;;20.87;7.70;;;;;;;6.11;100.00;100746.41;5053461;28;20029;-67